Time;durP1;ratioP1;P1;durP2;ratioP2;P2;SDS_P1;SDS_P2;PMS_P1;PMS_P2;Temp;Humidity;BMP_temperature;BMP_pressure;BME280_temperature;BME280_humidity;BME280_pressure;Samples;Min_cycle;Max_cycle;Signal;HPM_P1;HPM_P2
2022/04/01 00:02:11;;;;;;;9.40;8.40;;;10.10;95.20;;;;;;4934438;29;20416;-68
2022/04/01 00:05:51;;;;;;;9.23;8.13;;;10.10;95.20;;;;;;4935916;29;20925;-68
2022/04/01 00:09:33;;;;;;;9.67;8.33;;;10.00;95.10;;;;;;4918311;29;20833;-68
2022/04/01 00:13:15;;;;;;;8.93;8.03;;;10.10;95.20;;;;;;4915389;29;20520;-68
2022/04/01 00:16:55;;;;;;;8.73;7.70;;;10.00;95.10;;;;;;4916304;29;20483;-68
2022/04/01 00:28:01;;;;;;;8.93;8.03;;;10.00;95.00;;;;;;4916347;29;20405;-67
2022/04/01 00:31:18;;;;;;;8.97;8.07;;;10.00;95.00;;;;;;4915269;29;20440;-68
2022/04/01 00:34:16;;;;;;;8.50;7.70;;;10.00;95.00;;;;;;4919242;29;20448;-68
2022/04/01 00:36:48;;;;;;;7.57;6.87;;;10.00;94.90;;;;;;4918584;29;20448;-68
2022/04/01 00:53:12;;;;;;;7.63;6.83;;;9.90;95.30;;;;;;4919581;29;20410;-68
2022/04/01 00:56:31;;;;;;;8.20;7.40;;;9.90;95.30;;;;;;4918092;29;20472;-67
2022/04/01 01:00:12;;;;;;;8.63;7.83;;;9.90;95.30;;;;;;4918350;29;20476;-67
2022/04/01 01:03:54;;;;;;;6.73;6.13;;;9.90;95.30;;;;;;4918315;29;20499;-67
2022/04/01 01:07:36;;;;;;;7.37;6.63;;;9.90;95.30;;;;;;4918168;29;20440;-68
2022/04/01 01:11:18;;;;;;;11.73;6.63;;;9.80;95.20;;;;;;4918197;29;20451;-67
2022/04/01 01:14:59;;;;;;;7.50;6.80;;;9.90;95.20;;;;;;4934018;29;20484;-67
2022/04/01 01:18:42;;;;;;;6.90;6.20;;;9.80;95.10;;;;;;4941779;29;20427;-68
2022/04/01 01:22:23;;;;;;;7.27;6.53;;;9.80;95.10;;;;;;4938034;29;20520;-68
2022/04/01 01:26:07;;;;;;;7.57;6.60;;;9.80;95.10;;;;;;4936931;29;20428;-68
2022/04/01 01:37:19;;;;;;;7.50;6.70;;;9.80;94.90;;;;;;4917512;29;20796;-68
2022/04/01 01:40:37;;;;;;;6.60;5.90;;;9.70;94.80;;;;;;4925779;29;20432;-68
2022/04/01 01:43:53;;;;;;;6.57;5.97;;;9.70;94.80;;;;;;4920249;29;20432;-68
2022/04/01 01:47:36;;;;;;;6.37;5.70;;;9.70;94.80;;;;;;4936247;29;20507;-68
2022/04/01 01:55:44;;;;;;;6.57;5.97;;;9.70;94.60;;;;;;4937353;29;20895;-68
2022/04/01 01:59:51;;;;;;;6.03;5.43;;;9.70;94.70;;;;;;4937491;29;20457;-68
2022/04/01 02:03:34;;;;;;;7.57;6.70;;;9.60;94.70;;;;;;4937610;29;20395;-68
2022/04/01 02:06:04;;;;;;;7.73;7.03;;;9.60;94.60;;;;;;4920220;29;20455;-68
2022/04/01 02:09:21;;;;;;;5.70;5.10;;;9.60;94.60;;;;;;4920359;29;20415;-68
2022/04/01 02:12:16;;;;;;;6.50;5.50;;;9.60;94.60;;;;;;4917984;29;20445;-67
2022/04/01 02:14:45;;;;;;;8.80;6.60;;;9.60;94.50;;;;;;4901002;29;20449;-68
2022/04/01 02:18:03;;;;;;;5.87;5.07;;;9.60;94.50;;;;;;4923510;29;20526;-68
2022/04/01 02:21:21;;;;;;;8.63;5.80;;;9.60;94.50;;;;;;4935717;29;20403;-68
2022/04/01 02:40:14;;;;;;;5.63;5.00;;;9.50;94.20;;;;;;4936185;29;20436;-68
2022/04/01 03:04:30;;;;;;;4.97;4.47;;;9.40;94.10;;;;;;4917108;29;20461;-68
2022/04/01 03:07:50;;;;;;;5.03;4.50;;;9.40;94.00;;;;;;4934630;29;20455;-68
2022/04/01 03:11:30;;;;;;;4.33;3.93;;;9.40;94.10;;;;;;4917255;29;20987;-67
2022/04/01 03:15:21;;;;;;;6.90;4.30;;;9.40;94.00;;;;;;4933505;29;20495;-75
2022/04/01 03:18:16;;;;;;;4.17;3.77;;;9.40;94.00;;;;;;4915818;29;20927;-74
2022/04/01 03:20:45;;;;;;;4.27;3.87;;;9.30;93.80;;;;;;4900407;29;20793;-75
2022/04/01 03:23:13;;;;;;;4.80;3.83;;;9.30;93.80;;;;;;4900371;29;20457;-75
2022/04/01 03:25:43;;;;;;;4.53;3.80;;;9.40;93.90;;;;;;4917067;29;20491;-75
2022/04/01 03:28:13;;;;;;;4.37;3.73;;;9.40;93.90;;;;;;4917099;29;20444;-75
2022/04/01 03:30:39;;;;;;;4.10;3.70;;;9.40;93.80;;;;;;4916103;29;20401;-75
2022/04/01 03:33:08;;;;;;;5.73;3.57;;;9.40;93.80;;;;;;4900322;29;20433;-75
2022/04/01 03:35:38;;;;;;;4.10;3.40;;;9.30;93.70;;;;;;4915853;29;20520;-74
2022/04/01 03:38:05;;;;;;;3.03;2.73;;;9.30;93.60;;;;;;4900312;29;20393;-75
2022/04/01 03:40:32;;;;;;;4.50;3.00;;;9.30;93.60;;;;;;4915826;29;20409;-75
2022/04/01 03:42:59;;;;;;;3.60;3.30;;;9.30;93.50;;;;;;4915848;29;20397;-75
2022/04/01 03:45:29;;;;;;;3.60;3.30;;;9.30;93.50;;;;;;4900299;29;21032;-75
2022/04/01 03:48:24;;;;;;;3.43;3.13;;;9.30;93.50;;;;;;4900091;29;20516;-75
2022/04/01 03:50:58;;;;;;;3.40;3.10;;;9.30;93.30;;;;;;4900239;29;20479;-75
2022/04/01 03:53:29;;;;;;;4.10;2.90;;;9.30;93.20;;;;;;4900026;29;20432;-75
2022/04/01 03:55:58;;;;;;;4.43;3.10;;;9.30;93.20;;;;;;4915656;29;20495;-75
2022/04/01 03:58:47;;;;;;;4.10;2.93;;;9.30;93.20;;;;;;4915622;29;20428;-75
2022/04/01 04:01:40;;;;;;;3.40;3.10;;;9.30;93.20;;;;;;4937822;28;20425;-75
2022/04/01 04:04:09;;;;;;;3.63;3.33;;;9.30;93.20;;;;;;4900062;29;20499;-75
2022/04/01 04:06:38;;;;;;;4.53;3.03;;;9.20;93.20;;;;;;4916410;29;20976;-75
2022/04/01 04:09:09;;;;;;;5.00;3.63;;;9.20;93.20;;;;;;4919480;29;20460;-74
2022/04/01 04:11:38;;;;;;;3.50;2.80;;;9.20;93.20;;;;;;4903790;29;20433;-74
2022/04/01 04:14:27;;;;;;;3.50;3.20;;;9.20;93.20;;;;;;4919126;29;20528;-72
2022/04/01 04:16:57;;;;;;;3.37;3.07;;;9.20;93.20;;;;;;4919044;29;20985;-72
2022/04/01 04:19:45;;;;;;;4.10;2.80;;;9.20;93.20;;;;;;4903697;29;20425;-73
2022/04/01 04:22:21;;;;;;;4.50;2.77;;;9.20;93.30;;;;;;4903589;29;20522;-72
2022/04/01 04:25:00;;;;;;;4.33;3.07;;;9.20;93.10;;;;;;4903426;29;20799;-73
2022/04/01 04:27:29;;;;;;;4.03;3.23;;;9.20;93.20;;;;;;4920214;29;20440;-73
2022/04/01 04:30:09;;;;;;;3.53;2.70;;;9.20;93.20;;;;;;4914330;29;20527;-73
2022/04/01 04:33:01;;;;;;;3.00;2.70;;;9.20;93.20;;;;;;4906033;29;20409;-73
2022/04/01 04:35:29;;;;;;;3.40;3.03;;;9.20;93.20;;;;;;4902900;29;20483;-73
2022/04/01 04:38:02;;;;;;;3.17;2.87;;;9.10;93.10;;;;;;4887689;29;20527;-73
2022/04/01 04:40:37;;;;;;;3.47;3.03;;;9.10;93.10;;;;;;4918698;29;20440;-72
2022/04/01 04:43:18;;;;;;;3.03;2.60;;;9.10;93.10;;;;;;4903975;29;20443;-73
2022/04/01 04:45:49;;;;;;;4.00;3.60;;;9.10;93.10;;;;;;4902856;29;20456;-73
2022/04/01 04:48:17;;;;;;;2.90;2.63;;;9.10;93.10;;;;;;4903086;29;20789;-75
2022/04/01 04:50:50;;;;;;;4.17;2.97;;;9.10;93.00;;;;;;4919553;29;20449;-72
2022/04/01 04:53:20;;;;;;;3.50;2.60;;;9.10;92.90;;;;;;4918484;29;20413;-72
2022/04/01 04:55:50;;;;;;;3.47;2.60;;;9.10;92.90;;;;;;4902642;29;21001;-72
2022/04/01 04:58:39;;;;;;;3.30;2.80;;;9.00;92.90;;;;;;4918619;29;20440;-72
2022/04/01 05:01:34;;;;;;;3.23;2.57;;;9.00;92.90;;;;;;4903011;29;20507;-72
2022/04/01 05:04:12;;;;;;;2.83;2.53;;;9.00;92.90;;;;;;4918325;29;20540;-75
2022/04/01 05:06:53;;;;;;;2.87;2.57;;;9.00;92.80;;;;;;4918480;29;20436;-71
2022/04/01 05:10:08;;;;;;;3.60;2.80;;;9.00;92.80;;;;;;4910115;29;20463;-71
2022/04/01 05:12:42;;;;;;;2.50;2.23;;;9.00;92.90;;;;;;4918217;29;20440;-71
2022/04/01 05:15:16;;;;;;;3.67;2.60;;;9.00;92.90;;;;;;4918079;29;20554;-71
2022/04/01 05:17:59;;;;;;;3.97;3.30;;;9.00;92.90;;;;;;4917900;29;20445;-71
2022/04/01 05:20:35;;;;;;;2.97;2.70;;;9.00;93.00;;;;;;4903095;29;20420;-75
2022/04/01 05:23:22;;;;;;;3.57;2.90;;;9.00;92.90;;;;;;4908560;29;20505;-75
2022/04/01 05:26:01;;;;;;;3.23;2.70;;;9.00;92.90;;;;;;4883569;29;21250;-76
2022/04/01 05:28:52;;;;;;;2.67;2.30;;;9.00;92.80;;;;;;4899389;29;20406;-77
2022/04/01 05:31:35;;;;;;;4.00;3.50;;;8.90;92.70;;;;;;4901588;29;20432;-76
2022/04/01 05:34:11;;;;;;;3.43;3.13;;;8.90;92.70;;;;;;4914771;29;20539;-76
2022/04/01 05:36:41;;;;;;;3.23;2.93;;;8.90;92.70;;;;;;4883066;29;20445;-75
2022/04/01 05:39:12;;;;;;;3.23;2.80;;;8.90;92.60;;;;;;4883355;29;20461;-73
2022/04/01 05:41:42;;;;;;;5.13;3.50;;;8.90;92.60;;;;;;4898158;29;20398;-73
2022/04/01 05:44:14;;;;;;;3.10;2.80;;;8.90;92.70;;;;;;4925924;29;20446;-75
2022/04/01 05:46:44;;;;;;;3.90;3.20;;;8.90;92.70;;;;;;4913635;29;20481;-76
2022/04/01 05:49:17;;;;;;;3.47;3.00;;;8.90;92.70;;;;;;4909853;29;20429;-77
2022/04/01 05:51:46;;;;;;;2.93;2.70;;;8.90;92.70;;;;;;4902096;29;20433;-77
2022/04/01 05:54:15;;;;;;;4.00;3.60;;;8.90;92.60;;;;;;4917140;29;20535;-77
2022/04/01 05:56:47;;;;;;;3.70;3.33;;;8.90;92.60;;;;;;4917497;29;20495;-76
2022/04/01 05:59:18;;;;;;;4.47;4.07;;;8.80;92.50;;;;;;4886451;29;20428;-76
2022/04/01 06:02:05;;;;;;;5.27;3.60;;;8.80;92.40;;;;;;4886861;29;20454;-76
2022/04/01 06:05:12;;;;;;;3.93;3.30;;;8.80;92.40;;;;;;4899736;29;20910;-76
2022/04/01 06:08:24;;;;;;;3.97;3.63;;;8.80;92.40;;;;;;4883499;29;20792;-75
2022/04/01 06:11:00;;;;;;;5.10;3.47;;;8.80;92.40;;;;;;4883116;29;20837;-76
2022/04/01 06:14:27;;;;;;;3.37;3.07;;;8.80;92.40;;;;;;4900535;29;20485;-76
2022/04/01 06:17:51;;;;;;;3.90;3.20;;;8.80;92.40;;;;;;4849151;29;20511;-76
2022/04/01 06:20:20;;;;;;;4.13;3.60;;;8.70;92.40;;;;;;4893816;29;20434;-76
2022/04/01 06:22:54;;;;;;;5.10;4.60;;;8.70;92.40;;;;;;4880605;29;20532;-76
2022/04/01 06:25:30;;;;;;;3.93;3.53;;;8.70;92.40;;;;;;4882724;29;20787;-76
2022/04/01 06:28:14;;;;;;;3.83;3.30;;;8.70;92.40;;;;;;4898258;29;20425;-76
2022/04/01 06:30:47;;;;;;;3.87;3.57;;;8.70;92.40;;;;;;4882015;29;20434;-76
2022/04/01 06:33:16;;;;;;;3.37;3.07;;;8.70;92.40;;;;;;4897923;29;20391;-76
2022/04/01 06:36:11;;;;;;;3.70;3.13;;;8.70;92.40;;;;;;4905326;29;20473;-77
2022/04/01 06:39:01;;;;;;;7.03;3.17;;;8.70;92.40;;;;;;4898604;29;20440;-76
2022/04/01 06:41:54;;;;;;;5.33;3.73;;;8.70;92.40;;;;;;4881545;29;20441;-76
2022/04/01 06:44:39;;;;;;;3.70;3.40;;;8.70;92.40;;;;;;4898887;29;20410;-76
2022/04/01 06:47:41;;;;;;;5.63;3.77;;;8.70;92.40;;;;;;4905278;29;20445;-76
2022/04/01 06:50:12;;;;;;;3.80;3.50;;;8.70;92.40;;;;;;4885163;29;20461;-75
2022/04/01 06:53:02;;;;;;;4.37;3.97;;;8.70;92.40;;;;;;4925166;29;20444;-74
2022/04/01 06:55:52;;;;;;;4.77;4.00;;;8.70;92.30;;;;;;4916011;29;20472;-73
2022/04/01 06:58:26;;;;;;;3.53;3.23;;;8.60;92.20;;;;;;4910874;29;20626;-73
2022/04/01 07:00:58;;;;;;;4.70;4.03;;;8.60;92.20;;;;;;4916453;29;20428;-73
2022/04/01 07:03:35;;;;;;;3.97;3.57;;;8.60;92.20;;;;;;4916501;29;20433;-73
2022/04/01 07:06:02;;;;;;;4.70;4.03;;;8.60;92.20;;;;;;4916270;29;20532;-73
2022/04/01 07:08:28;;;;;;;4.60;3.50;;;8.60;92.20;;;;;;4916231;29;20512;-76
2022/04/01 07:10:55;;;;;;;4.20;3.80;;;8.60;92.10;;;;;;4916301;29;20583;-75
2022/04/01 07:13:23;;;;;;;5.10;3.77;;;8.60;92.10;;;;;;4900126;29;20440;-74
2022/04/01 07:15:51;;;;;;;3.67;3.33;;;8.70;92.20;;;;;;4915839;29;20479;-74
2022/04/01 07:18:21;;;;;;;3.50;3.20;;;8.60;92.10;;;;;;4917037;29;20408;-74
2022/04/01 07:20:50;;;;;;;5.23;4.10;;;8.60;92.10;;;;;;4916822;29;20409;-77
2022/04/01 07:23:16;;;;;;;4.60;3.67;;;8.60;92.10;;;;;;4915252;29;20409;-76
2022/04/01 07:25:42;;;;;;;4.70;4.10;;;8.60;92.10;;;;;;4915769;29;20872;-76
2022/04/01 07:28:11;;;;;;;4.13;3.70;;;8.60;92.10;;;;;;4916097;29;20931;-75
2022/04/01 07:30:39;;;;;;;3.80;3.40;;;8.60;92.10;;;;;;4914659;29;20468;-75
2022/04/01 07:33:09;;;;;;;3.77;3.30;;;8.60;92.10;;;;;;4899686;29;20938;-76
2022/04/01 07:35:37;;;;;;;4.13;3.47;;;8.50;92.00;;;;;;4898438;29;21013;-77
2022/04/01 07:38:04;;;;;;;3.93;3.50;;;8.60;92.10;;;;;;4909046;29;20480;-77
2022/04/01 07:40:30;;;;;;;3.37;3.07;;;8.60;91.90;;;;;;4914867;29;20444;-77
2022/04/01 07:42:56;;;;;;;4.73;4.10;;;8.50;91.90;;;;;;4899009;29;20555;-77
2022/04/01 07:45:27;;;;;;;4.60;3.90;;;8.50;91.90;;;;;;4884006;29;20455;-77
2022/04/01 07:47:58;;;;;;;3.30;3.00;;;8.50;91.80;;;;;;4910583;29;20445;-74
2022/04/01 07:50:27;;;;;;;4.00;3.60;;;8.50;91.80;;;;;;4866695;29;20428;-76
2022/04/01 07:52:54;;;;;;;4.37;3.57;;;8.50;91.70;;;;;;4898125;29;20449;-77
2022/04/01 07:55:24;;;;;;;4.00;3.50;;;8.50;91.70;;;;;;4896711;29;20492;-72
2022/04/01 07:57:56;;;;;;;4.20;3.60;;;8.50;91.70;;;;;;4906729;29;20432;-71
2022/04/01 08:00:22;;;;;;;3.93;3.43;;;8.50;91.70;;;;;;4914180;29;21040;-71
2022/04/01 08:02:49;;;;;;;4.13;3.20;;;8.50;91.70;;;;;;4912826;29;20432;-71
2022/04/01 08:05:16;;;;;;;4.23;3.53;;;8.50;91.70;;;;;;4907239;29;20425;-71
2022/04/01 08:07:44;;;;;;;4.53;3.60;;;8.50;91.70;;;;;;4895940;29;20421;-71
2022/04/01 08:10:15;;;;;;;3.60;3.30;;;8.50;91.70;;;;;;4903796;29;20489;-71
2022/04/01 08:12:45;;;;;;;4.93;3.90;;;8.50;91.60;;;;;;4925117;29;20455;-71
2022/04/01 08:15:12;;;;;;;4.67;3.83;;;8.40;91.70;;;;;;4894443;29;20983;-70
2022/04/01 08:17:38;;;;;;;3.23;2.93;;;8.40;91.60;;;;;;4910696;29;20440;-71
2022/04/01 08:20:05;;;;;;;4.37;3.70;;;8.40;91.60;;;;;;4895665;29;20445;-71
2022/04/01 08:22:33;;;;;;;3.43;2.90;;;8.40;91.50;;;;;;4897647;29;20436;-70
2022/04/01 08:24:59;;;;;;;5.97;3.20;;;8.40;91.40;;;;;;4898311;29;20872;-71
2022/04/01 08:27:27;;;;;;;3.60;2.97;;;8.40;91.40;;;;;;4914074;29;21002;-70
2022/04/01 08:29:59;;;;;;;5.20;3.57;;;8.40;91.40;;;;;;4895398;29;20405;-71
2022/04/01 08:32:30;;;;;;;4.03;2.97;;;8.40;91.50;;;;;;4921912;29;20515;-71
2022/04/01 08:34:58;;;;;;;5.03;3.27;;;8.40;91.50;;;;;;4933736;29;20463;-71
2022/04/01 08:37:24;;;;;;;3.67;3.23;;;8.40;91.50;;;;;;4904594;29;20461;-70
2022/04/01 08:39:53;;;;;;;3.47;3.00;;;8.40;91.40;;;;;;4898414;29;20439;-71
2022/04/01 08:42:19;;;;;;;3.23;2.93;;;8.40;91.50;;;;;;4912591;29;20580;-71
2022/04/01 08:44:46;;;;;;;3.23;2.77;;;8.40;91.40;;;;;;4913869;29;20477;-71
2022/04/01 08:47:13;;;;;;;3.97;3.13;;;8.30;91.30;;;;;;4907957;29;20871;-71
2022/04/01 08:49:39;;;;;;;3.27;2.83;;;8.30;91.30;;;;;;4906485;29;20461;-71
2022/04/01 08:52:06;;;;;;;4.50;3.13;;;8.30;91.30;;;;;;4911568;29;20429;-70
2022/04/01 08:54:39;;;;;;;3.30;3.00;;;8.30;91.10;;;;;;4910261;29;20568;-70
2022/04/01 08:57:05;;;;;;;3.70;3.03;;;8.30;91.10;;;;;;4909806;29;20444;-71
2022/04/01 08:59:32;;;;;;;3.73;3.20;;;8.30;91.20;;;;;;4912226;29;20423;-70
2022/04/01 09:02:06;;;;;;;3.37;2.90;;;8.30;91.00;;;;;;4898236;29;20896;-70
2022/04/01 09:04:33;;;;;;;4.17;3.10;;;8.30;91.10;;;;;;4917413;29;20947;-71
2022/04/01 09:07:12;;;;;;;3.73;2.80;;;8.30;91.10;;;;;;4891931;29;20471;-70
2022/04/01 09:09:41;;;;;;;3.80;2.50;;;8.30;91.20;;;;;;4926360;29;20563;-70
2022/04/01 09:12:13;;;;;;;4.40;2.90;;;8.30;91.20;;;;;;4922681;29;20982;-69
2022/04/01 09:14:51;;;;;;;3.43;3.10;;;8.30;91.30;;;;;;4882613;29;20463;-70
2022/04/01 09:17:19;;;;;;;4.03;2.67;;;8.30;91.20;;;;;;4912971;29;20445;-70
2022/04/01 09:19:47;;;;;;;4.27;2.90;;;8.30;91.30;;;;;;4913475;29;20500;-70
2022/04/01 09:22:25;;;;;;;4.23;3.07;;;8.30;91.20;;;;;;4902413;29;20478;-70
2022/04/01 09:25:06;;;;;;;4.23;2.43;;;8.30;91.20;;;;;;4900577;29;20432;-70
2022/04/01 09:27:58;;;;;;;3.27;2.97;;;8.20;91.20;;;;;;4898007;29;20959;-70
2022/04/01 09:30:29;;;;;;;4.13;3.13;;;8.30;91.20;;;;;;4911512;29;20552;-70
2022/04/01 09:32:59;;;;;;;4.30;2.77;;;8.30;91.20;;;;;;4898177;29;20986;-70
2022/04/01 09:35:31;;;;;;;6.77;3.57;;;8.20;91.10;;;;;;4915535;29;20500;-70
2022/04/01 09:38:03;;;;;;;4.03;2.80;;;8.30;91.10;;;;;;4915564;29;20528;-70
2022/04/01 09:40:35;;;;;;;3.17;2.87;;;8.20;91.00;;;;;;4889018;29;20795;-69
2022/04/01 09:43:01;;;;;;;3.57;2.60;;;8.20;91.00;;;;;;4917595;29;20454;-69
2022/04/01 09:45:32;;;;;;;3.67;2.90;;;8.20;91.00;;;;;;4917569;29;20447;-69
2022/04/01 09:48:10;;;;;;;4.00;2.40;;;8.20;90.90;;;;;;4918903;29;20397;-70
2022/04/01 09:50:43;;;;;;;3.37;3.07;;;8.20;90.90;;;;;;4917815;29;20433;-70
2022/04/01 09:53:21;;;;;;;3.73;2.97;;;8.20;90.90;;;;;;4901924;29;20467;-70
2022/04/01 09:55:53;;;;;;;6.20;3.27;;;8.20;90.70;;;;;;4920178;29;20561;-70
2022/04/01 09:58:22;;;;;;;2.70;2.23;;;8.20;90.70;;;;;;4925410;29;20425;-71
2022/04/01 10:00:49;;;;;;;3.43;3.00;;;8.20;90.70;;;;;;4913577;29;20421;-71
2022/04/01 10:03:19;;;;;;;3.83;3.13;;;8.20;90.80;;;;;;4902594;29;20971;-71
2022/04/01 10:05:49;;;;;;;3.30;3.00;;;8.20;90.70;;;;;;4915137;29;21049;-71
2022/04/01 10:08:15;;;;;;;3.90;3.30;;;8.20;90.70;;;;;;4911575;29;20472;-71
2022/04/01 10:10:44;;;;;;;3.50;2.93;;;8.20;90.70;;;;;;4909735;29;20469;-71
2022/04/01 10:13:17;;;;;;;4.07;2.73;;;8.10;90.70;;;;;;4900170;29;20502;-71
2022/04/01 10:15:49;;;;;;;3.10;2.80;;;8.10;90.60;;;;;;4913753;29;20480;-73
2022/04/01 10:18:20;;;;;;;3.23;2.93;;;8.20;90.60;;;;;;4897140;29;20915;-72
2022/04/01 10:20:53;;;;;;;3.37;2.80;;;8.10;90.50;;;;;;4899385;29;20406;-71
2022/04/01 10:23:21;;;;;;;4.43;2.57;;;8.10;90.50;;;;;;4904442;29;20452;-73
2022/04/01 10:26:05;;;;;;;2.70;2.50;;;8.10;90.60;;;;;;4899102;29;20453;-71
2022/04/01 10:28:31;;;;;;;3.43;2.83;;;8.10;90.60;;;;;;4915095;29;20480;-72
2022/04/01 10:31:00;;;;;;;3.60;2.93;;;8.10;90.60;;;;;;4898971;29;20965;-72
2022/04/01 10:33:33;;;;;;;2.97;2.60;;;8.10;90.60;;;;;;4907043;29;20480;-72
2022/04/01 10:36:13;;;;;;;2.70;2.40;;;8.10;90.60;;;;;;4901020;29;20484;-72
2022/04/01 10:38:39;;;;;;;2.73;2.50;;;8.10;90.60;;;;;;4913064;29;20463;-72
2022/04/01 10:41:14;;;;;;;5.87;2.63;;;8.10;90.90;;;;;;4912911;29;20550;-72
2022/04/01 10:43:51;;;;;;;2.77;2.57;;;8.10;90.50;;;;;;4914527;29;20449;-72
2022/04/01 10:46:19;;;;;;;3.50;3.00;;;8.10;90.60;;;;;;4912010;29;20471;-73
2022/04/01 10:52:22;;;;;;;4.10;3.00;;;8.10;90.40;;;;;;4919299;29;20433;-72
2022/04/01 10:55:08;;;;;;;3.20;2.30;;;8.10;90.40;;;;;;4914693;29;20468;-72
2022/04/01 10:57:52;;;;;;;3.60;3.30;;;8.10;90.50;;;;;;4914514;29;20421;-72
2022/04/01 11:00:19;;;;;;;3.80;3.00;;;8.10;90.60;;;;;;4907630;29;20515;-73
2022/04/01 11:02:47;;;;;;;4.00;3.03;;;8.10;90.60;;;;;;4905923;29;20550;-72
2022/04/01 11:05:22;;;;;;;3.50;2.97;;;8.10;90.70;;;;;;4910955;29;20710;-72
2022/04/01 11:08:19;;;;;;;4.37;3.00;;;8.10;90.60;;;;;;4908633;29;20464;-72
2022/04/01 11:11:06;;;;;;;4.77;3.00;;;8.10;90.50;;;;;;4905645;29;21010;-73
2022/04/01 11:13:36;;;;;;;4.90;3.40;;;8.10;90.60;;;;;;4897698;29;20456;-72
2022/04/01 11:16:47;;;;;;;5.67;3.27;;;8.00;90.20;;;;;;4913690;29;20476;-72
2022/04/01 11:19:16;;;;;;;4.23;2.90;;;8.00;90.30;;;;;;4910153;29;20432;-72
2022/04/01 11:21:46;;;;;;;4.10;3.30;;;8.00;90.30;;;;;;4914704;29;20432;-73
2022/04/01 11:24:31;;;;;;;4.17;3.53;;;8.00;90.20;;;;;;4903919;29;20437;-72
2022/04/01 11:27:25;;;;;;;3.63;3.10;;;8.00;90.20;;;;;;4987694;23;20455;-91
2022/04/01 11:30:09;;;;;;;3.53;3.23;;;8.00;90.30;;;;;;4918498;29;20444;-92
2022/04/01 11:32:37;;;;;;;5.70;3.13;;;8.00;90.30;;;;;;4919216;29;20431;-93
2022/04/01 11:35:08;;;;;;;3.40;3.03;;;8.00;90.20;;;;;;4930412;29;20472;-89
2022/04/01 11:37:42;;;;;;;3.90;3.43;;;8.00;90.30;;;;;;4925428;29;20428;-89
2022/04/01 11:40:12;;;;;;;4.30;3.10;;;8.00;90.20;;;;;;4902706;29;20469;-91
2022/04/01 11:43:03;;;;;;;5.37;3.60;;;8.00;90.20;;;;;;4912261;29;20421;-91
2022/04/01 11:45:33;;;;;;;4.40;3.67;;;8.00;90.20;;;;;;4887539;29;20417;-90
2022/04/01 11:48:00;;;;;;;3.43;3.03;;;8.00;90.30;;;;;;4887457;29;20456;-91
2022/04/01 11:50:27;;;;;;;8.30;3.60;;;8.00;90.30;;;;;;4918658;29;20412;-92
2022/04/01 11:52:59;;;;;;;5.00;3.43;;;8.00;90.40;;;;;;4919041;29;20445;-91
2022/04/01 11:55:32;;;;;;;3.77;3.40;;;8.00;90.40;;;;;;4900320;29;20462;-92
2022/04/01 11:57:58;;;;;;;4.20;3.23;;;8.00;90.50;;;;;;4923706;29;20987;-91
2022/04/01 12:00:28;;;;;;;3.60;3.30;;;8.00;90.50;;;;;;4940004;29;20441;-93
2022/04/01 12:02:55;;;;;;;4.67;3.53;;;8.00;90.50;;;;;;4923524;29;20431;-92
2022/04/01 12:05:31;;;;;;;4.37;3.33;;;8.00;90.50;;;;;;4920596;29;20806;-91
2022/04/01 12:10:57;;;;;;;5.10;3.50;;;8.00;90.50;;;;;;4951919;29;20480;-93
2022/04/01 12:13:25;;;;;;;3.40;3.10;;;8.00;90.50;;;;;;4906638;29;20529;-94
2022/04/01 12:15:52;;;;;;;4.20;3.37;;;8.00;90.50;;;;;;4932202;29;20463;-94
2022/04/01 12:18:26;;;;;;;4.30;4.00;;;8.00;90.90;;;;;;4955824;28;20473;-94
2022/04/01 12:20:57;;;;;;;4.00;3.60;;;8.00;90.60;;;;;;4940031;29;20478;-92
2022/04/01 12:23:33;;;;;;;4.53;3.37;;;8.00;90.50;;;;;;4917171;29;20440;-91
2022/04/01 12:26:02;;;;;;;6.40;4.07;;;8.00;90.50;;;;;;4924609;29;21002;-92
2022/04/01 12:28:44;;;;;;;3.73;3.40;;;8.00;90.60;;;;;;4912610;29;20460;-92
2022/04/01 12:31:24;;;;;;;4.57;4.13;;;8.00;90.60;;;;;;4918918;29;20483;-93
2022/04/01 12:33:54;;;;;;;5.00;4.17;;;8.00;90.60;;;;;;4915095;29;20460;-90
2022/04/01 12:36:30;;;;;;;5.40;4.17;;;8.00;90.70;;;;;;4902590;29;20447;-93
2022/04/01 12:39:04;;;;;;;5.63;4.30;;;8.00;90.70;;;;;;4914993;29;20468;-91
2022/04/01 12:41:31;;;;;;;5.60;4.67;;;8.00;90.80;;;;;;4921662;29;20483;-90
2022/04/01 12:43:59;;;;;;;6.23;5.20;;;8.00;90.90;;;;;;4914365;29;20428;-94
2022/04/01 12:46:34;;;;;;;5.77;5.13;;;8.00;90.90;;;;;;4941264;29;20404;-91
2022/04/01 12:49:14;;;;;;;5.80;5.20;;;8.00;91.00;;;;;;4924929;29;20424;-93
2022/04/01 12:51:49;;;;;;;6.53;5.30;;;8.00;91.00;;;;;;4925404;29;20487;-93
2022/04/01 12:54:32;;;;;;;6.07;4.63;;;7.90;91.00;;;;;;4938741;29;20494;-94
2022/04/01 12:57:00;;;;;;;5.90;4.80;;;7.90;91.10;;;;;;4921257;29;20420;-90
2022/04/01 12:59:32;;;;;;;6.07;4.93;;;7.90;91.20;;;;;;4940610;29;20444;-91
2022/04/01 13:02:01;;;;;;;5.87;5.27;;;7.90;91.20;;;;;;4940641;29;20891;-91
2022/04/01 13:04:27;;;;;;;5.27;4.87;;;7.90;91.30;;;;;;4940614;29;20944;-92
2022/04/01 13:07:09;;;;;;;6.60;5.50;;;7.90;91.30;;;;;;4930343;29;20433;-94
2022/04/01 13:09:48;;;;;;;5.53;5.03;;;7.90;91.40;;;;;;4905899;29;20429;-92
2022/04/01 13:12:16;;;;;;;5.53;5.00;;;7.90;91.40;;;;;;4933728;29;20455;-94
2022/04/01 13:14:47;;;;;;;6.03;5.43;;;7.90;91.40;;;;;;4956496;29;20903;-92
2022/04/01 13:17:15;;;;;;;6.07;4.90;;;7.90;91.50;;;;;;4914265;29;20882;-89
2022/04/01 13:19:45;;;;;;;5.50;5.00;;;7.90;91.50;;;;;;4928400;29;20487;-91
2022/04/01 13:22:12;;;;;;;5.87;5.30;;;7.90;91.60;;;;;;4901665;29;20440;-90
2022/04/01 13:24:47;;;;;;;5.50;4.70;;;7.90;91.60;;;;;;4937965;29;20460;-91
2022/04/01 13:27:20;;;;;;;6.63;5.40;;;7.90;91.60;;;;;;4908555;29;20447;-91
2022/04/01 13:29:47;;;;;;;5.63;5.10;;;7.90;91.60;;;;;;4908614;29;20499;-93
2022/04/01 13:32:19;;;;;;;6.03;5.50;;;7.90;91.70;;;;;;4917853;29;20464;-91
2022/04/01 13:34:45;;;;;;;7.10;4.60;;;7.90;91.70;;;;;;4920795;29;20505;-92
2022/04/01 13:37:11;;;;;;;5.57;5.00;;;7.90;91.70;;;;;;4905364;29;20468;-92
2022/04/01 13:39:40;;;;;;;6.00;5.10;;;7.90;91.60;;;;;;4914993;29;20435;-93
2022/04/01 13:42:07;;;;;;;6.20;5.60;;;7.90;91.70;;;;;;4923420;29;20440;-92
2022/04/01 13:44:38;;;;;;;5.83;5.10;;;7.90;91.70;;;;;;4939992;29;20440;-91
2022/04/01 13:47:06;;;;;;;9.93;5.20;;;7.90;91.60;;;;;;4926223;29;20441;-90
2022/04/01 13:49:32;;;;;;;6.00;5.40;;;7.90;91.70;;;;;;4898401;29;20438;-91
2022/04/01 13:51:59;;;;;;;7.83;5.83;;;7.90;91.80;;;;;;4939944;29;20451;-92
2022/04/01 13:54:27;;;;;;;5.80;5.20;;;7.90;91.90;;;;;;4937332;29;20523;-91
2022/04/01 13:56:57;;;;;;;5.73;5.13;;;7.90;91.90;;;;;;4908027;29;20439;-90
2022/04/01 13:59:36;;;;;;;7.97;5.70;;;7.80;91.90;;;;;;4935766;29;20757;-93
2022/04/01 14:02:04;;;;;;;6.10;4.97;;;7.90;92.00;;;;;;4920412;29;20429;-92
2022/04/01 14:04:30;;;;;;;6.53;5.03;;;7.90;92.00;;;;;;4920994;29;20448;-92
2022/04/01 14:06:59;;;;;;;5.40;4.70;;;7.80;92.00;;;;;;4905223;29;20746;-92
2022/04/01 14:09:25;;;;;;;5.90;5.30;;;7.90;92.00;;;;;;4917881;29;20532;-93
2022/04/01 14:11:53;;;;;;;6.17;5.00;;;7.90;92.00;;;;;;4920254;29;20451;-92
2022/04/01 14:14:19;;;;;;;5.17;4.67;;;7.80;92.00;;;;;;4907690;29;20545;-93
2022/04/01 14:16:46;;;;;;;6.20;4.57;;;7.80;92.10;;;;;;4923560;29;20451;-92
2022/04/01 14:19:14;;;;;;;5.70;4.97;;;7.80;92.10;;;;;;4923765;29;20499;-93
2022/04/01 14:21:40;;;;;;;4.90;4.47;;;7.80;92.10;;;;;;4920117;29;21125;-91
2022/04/01 14:24:06;;;;;;;5.07;4.50;;;7.80;92.20;;;;;;4904785;29;20246;-90
2022/04/01 14:26:34;;;;;;;6.27;5.63;;;7.80;92.10;;;;;;4907417;29;20419;-91
2022/04/01 14:31:58;;;;;;;8.40;5.50;;;7.80;92.20;;;;;;4938439;28;20459;-90
2022/04/01 14:34:37;;;;;;;4.93;4.40;;;7.90;92.20;;;;;;4900310;29;20479;-91
2022/04/01 14:46:00;;;;;;;5.83;5.07;;;7.80;92.30;;;;;;4920432;23;20488;31
2022/04/01 14:48:29;;;;;;;7.30;5.77;;;7.80;92.40;;;;;;4926298;29;20484;-71
2022/04/01 14:50:54;;;;;;;6.10;5.03;;;7.80;92.50;;;;;;4925819;29;20425;-71
2022/04/01 14:53:21;;;;;;;7.67;5.43;;;7.80;92.60;;;;;;4921635;29;20434;-71
2022/04/01 14:55:47;;;;;;;5.83;5.33;;;7.80;92.70;;;;;;4910970;29;20482;-71
2022/04/01 14:58:16;;;;;;;6.23;5.50;;;7.80;92.80;;;;;;4900668;29;20444;-71
2022/04/01 15:00:46;;;;;;;7.40;4.90;;;7.80;92.80;;;;;;4928320;29;20460;-71
2022/04/01 15:03:12;;;;;;;5.73;5.10;;;7.80;93.00;;;;;;4914560;29;20428;-70
2022/04/01 15:05:41;;;;;;;6.30;5.47;;;7.80;93.00;;;;;;4898577;29;21392;-70
2022/04/01 15:08:07;;;;;;;6.50;5.50;;;7.80;93.20;;;;;;4913112;29;20861;-70
2022/04/01 15:10:36;;;;;;;6.87;6.03;;;7.80;93.00;;;;;;4936022;29;20631;-71
2022/04/01 15:13:02;;;;;;;6.70;6.00;;;7.80;93.00;;;;;;4929040;29;20798;-71
2022/04/01 15:15:28;;;;;;;6.60;5.80;;;7.80;93.10;;;;;;4912919;29;20845;-71
2022/04/01 15:17:54;;;;;;;5.80;5.23;;;7.90;93.00;;;;;;4914203;29;20425;-71
2022/04/01 15:20:23;;;;;;;7.60;5.93;;;7.80;93.00;;;;;;4918925;29;20578;-68
2022/04/01 15:22:49;;;;;;;6.10;5.50;;;7.80;93.10;;;;;;4920731;29;21036;-70
2022/04/01 15:25:16;;;;;;;6.70;6.00;;;7.80;93.10;;;;;;4941699;28;20441;-70
2022/04/01 15:27:45;;;;;;;7.67;6.87;;;7.80;93.10;;;;;;4915128;29;20460;-72
2022/04/01 15:30:12;;;;;;;5.73;5.17;;;7.80;93.10;;;;;;4914165;29;20950;-73